sensor_id;sensor_type;location;lat;lon;timestamp;P1;durP1;ratioP1;P2;durP2;ratioP2
8252;SDS011;61313;48.396;10.008;2023-02-01T00:02:22;7.20;;;5.50;;
8252;SDS011;61313;48.396;10.008;2023-02-01T00:04:47;8.70;;;5.70;;
8252;SDS011;61313;48.396;10.008;2023-02-01T00:07:13;8.93;;;7.07;;
8252;SDS011;61313;48.396;10.008;2023-02-01T00:09:38;12.10;;;6.20;;
8252;SDS011;61313;48.396;10.008;2023-02-01T00:12:04;8.90;;;6.10;;
8252;SDS011;61313;48.396;10.008;2023-02-01T00:14:29;8.03;;;5.70;;
8252;SDS011;61313;48.396;10.008;2023-02-01T00:16:55;7.73;;;5.60;;
8252;SDS011;61313;48.396;10.008;2023-02-01T00:19:20;7.20;;;5.90;;
8252;SDS011;61313;48.396;10.008;2023-02-01T00:21:46;7.93;;;7.23;;
8252;SDS011;61313;48.396;10.008;2023-02-01T00:24:11;6.80;;;6.10;;
8252;SDS011;61313;48.396;10.008;2023-02-01T00:26:41;10.07;;;5.87;;
8252;SDS011;61313;48.396;10.008;2023-02-01T00:29:11;16.20;;;6.67;;
8252;SDS011;61313;48.396;10.008;2023-02-01T00:31:39;16.60;;;8.33;;
8252;SDS011;61313;48.396;10.008;2023-02-01T00:34:05;12.30;;;6.40;;
8252;SDS011;61313;48.396;10.008;2023-02-01T00:36:33;11.63;;;6.37;;
8252;SDS011;61313;48.396;10.008;2023-02-01T00:38:59;9.03;;;5.43;;
8252;SDS011;61313;48.396;10.008;2023-02-01T00:41:24;7.00;;;6.23;;
8252;SDS011;61313;48.396;10.008;2023-02-01T00:43:50;8.60;;;6.77;;
8252;SDS011;61313;48.396;10.008;2023-02-01T00:46:17;11.87;;;6.40;;
8252;SDS011;61313;48.396;10.008;2023-02-01T00:48:43;8.40;;;5.93;;
8252;SDS011;61313;48.396;10.008;2023-02-01T00:51:10;8.23;;;6.57;;
8252;SDS011;61313;48.396;10.008;2023-02-01T00:53:37;9.13;;;5.63;;
8252;SDS011;61313;48.396;10.008;2023-02-01T00:56:03;8.67;;;6.20;;
8252;SDS011;61313;48.396;10.008;2023-02-01T00:58:30;9.50;;;5.73;;
8252;SDS011;61313;48.396;10.008;2023-02-01T01:01:04;8.50;;;5.97;;
8252;SDS011;61313;48.396;10.008;2023-02-01T01:03:31;6.40;;;5.50;;
8252;SDS011;61313;48.396;10.008;2023-02-01T01:06:01;6.00;;;5.20;;
8252;SDS011;61313;48.396;10.008;2023-02-01T01:08:28;10.77;;;5.80;;
8252;SDS011;61313;48.396;10.008;2023-02-01T01:10:54;7.90;;;5.83;;
8252;SDS011;61313;48.396;10.008;2023-02-01T01:13:19;7.20;;;6.00;;
8252;SDS011;61313;48.396;10.008;2023-02-01T01:15:45;5.67;;;4.77;;
8252;SDS011;61313;48.396;10.008;2023-02-01T01:18:11;6.10;;;5.20;;
8252;SDS011;61313;48.396;10.008;2023-02-01T01:20:37;9.90;;;5.47;;
8252;SDS011;61313;48.396;10.008;2023-02-01T01:23:04;9.23;;;6.13;;
8252;SDS011;61313;48.396;10.008;2023-02-01T01:25:30;10.17;;;6.70;;
8252;SDS011;61313;48.396;10.008;2023-02-01T01:27:56;8.67;;;5.87;;
8252;SDS011;61313;48.396;10.008;2023-02-01T01:30:21;6.77;;;6.00;;
8252;SDS011;61313;48.396;10.008;2023-02-01T01:32:47;6.83;;;6.03;;
8252;SDS011;61313;48.396;10.008;2023-02-01T01:35:12;6.90;;;5.60;;
8252;SDS011;61313;48.396;10.008;2023-02-01T01:37:38;8.60;;;5.50;;
8252;SDS011;61313;48.396;10.008;2023-02-01T01:40:04;10.77;;;5.90;;
8252;SDS011;61313;48.396;10.008;2023-02-01T01:42:30;6.57;;;4.93;;
8252;SDS011;61313;48.396;10.008;2023-02-01T01:45:05;6.60;;;5.27;;
8252;SDS011;61313;48.396;10.008;2023-02-01T01:47:44;8.67;;;5.70;;
8252;SDS011;61313;48.396;10.008;2023-02-01T01:50:16;10.27;;;5.47;;
8252;SDS011;61313;48.396;10.008;2023-02-01T01:52:46;8.13;;;6.27;;
8252;SDS011;61313;48.396;10.008;2023-02-01T01:55:16;6.40;;;5.10;;
8252;SDS011;61313;48.396;10.008;2023-02-01T01:57:46;6.63;;;5.63;;
8252;SDS011;61313;48.396;10.008;2023-02-01T02:00:18;9.57;;;5.00;;
8252;SDS011;61313;48.396;10.008;2023-02-01T02:02:46;10.87;;;5.33;;
8252;SDS011;61313;48.396;10.008;2023-02-01T02:05:17;7.13;;;6.20;;
8252;SDS011;61313;48.396;10.008;2023-02-01T02:07:46;7.13;;;6.07;;
8252;SDS011;61313;48.396;10.008;2023-02-01T02:10:14;10.63;;;6.67;;
8252;SDS011;61313;48.396;10.008;2023-02-01T02:12:41;9.73;;;5.43;;
8252;SDS011;61313;48.396;10.008;2023-02-01T02:15:09;8.63;;;6.23;;
8252;SDS011;61313;48.396;10.008;2023-02-01T02:26:33;6.10;;;5.50;;
8252;SDS011;61313;48.396;10.008;2023-02-01T02:42:30;5.53;;;4.80;;
8252;SDS011;61313;48.396;10.008;2023-02-01T02:45:34;6.60;;;5.90;;
8252;SDS011;61313;48.396;10.008;2023-02-01T02:51:08;9.20;;;5.30;;
8252;SDS011;61313;48.396;10.008;2023-02-01T02:54:04;5.90;;;4.70;;
8252;SDS011;61313;48.396;10.008;2023-02-01T02:56:56;70.70;;;11.37;;
8252;SDS011;61313;48.396;10.008;2023-02-01T02:59:42;5.03;;;4.53;;
8252;SDS011;61313;48.396;10.008;2023-02-01T03:02:29;8.43;;;5.10;;
8252;SDS011;61313;48.396;10.008;2023-02-01T03:05:14;11.50;;;6.00;;
8252;SDS011;61313;48.396;10.008;2023-02-01T03:10:23;6.17;;;5.33;;
8252;SDS011;61313;48.396;10.008;2023-02-01T03:12:49;6.27;;;4.97;;
8252;SDS011;61313;48.396;10.008;2023-02-01T03:15:26;7.97;;;5.40;;
8252;SDS011;61313;48.396;10.008;2023-02-01T03:18:10;8.63;;;6.17;;
8252;SDS011;61313;48.396;10.008;2023-02-01T03:20:42;8.00;;;7.10;;
8252;SDS011;61313;48.396;10.008;2023-02-01T03:23:12;7.53;;;5.60;;
8252;SDS011;61313;48.396;10.008;2023-02-01T03:25:41;7.70;;;5.73;;
8252;SDS011;61313;48.396;10.008;2023-02-01T03:28:07;5.73;;;4.70;;
8252;SDS011;61313;48.396;10.008;2023-02-01T03:30:39;8.33;;;6.20;;
8252;SDS011;61313;48.396;10.008;2023-02-01T03:33:08;7.23;;;5.90;;
8252;SDS011;61313;48.396;10.008;2023-02-01T03:47:26;12.20;;;5.93;;
8252;SDS011;61313;48.396;10.008;2023-02-01T03:49:57;7.97;;;6.40;;
8252;SDS011;61313;48.396;10.008;2023-02-01T03:54:57;7.37;;;6.00;;
8252;SDS011;61313;48.396;10.008;2023-02-01T03:57:27;7.20;;;6.17;;
8252;SDS011;61313;48.396;10.008;2023-02-01T04:00:15;8.23;;;5.17;;
8252;SDS011;61313;48.396;10.008;2023-02-01T04:02:43;8.60;;;5.90;;
8252;SDS011;61313;48.396;10.008;2023-02-01T04:05:09;6.97;;;6.27;;
8252;SDS011;61313;48.396;10.008;2023-02-01T04:07:34;7.30;;;6.50;;
8252;SDS011;61313;48.396;10.008;2023-02-01T04:09:59;8.80;;;6.30;;
8252;SDS011;61313;48.396;10.008;2023-02-01T04:12:25;9.20;;;5.70;;
8252;SDS011;61313;48.396;10.008;2023-02-01T04:14:50;11.60;;;6.53;;
8252;SDS011;61313;48.396;10.008;2023-02-01T04:17:16;7.70;;;6.10;;
8252;SDS011;61313;48.396;10.008;2023-02-01T04:19:42;8.33;;;5.77;;
8252;SDS011;61313;48.396;10.008;2023-02-01T04:22:07;10.90;;;5.87;;
8252;SDS011;61313;48.396;10.008;2023-02-01T04:24:32;6.30;;;5.30;;
8252;SDS011;61313;48.396;10.008;2023-02-01T04:26:58;7.10;;;5.60;;
8252;SDS011;61313;48.396;10.008;2023-02-01T04:29:23;6.27;;;5.33;;
8252;SDS011;61313;48.396;10.008;2023-02-01T04:31:49;10.57;;;6.50;;
8252;SDS011;61313;48.396;10.008;2023-02-01T04:34:14;7.87;;;6.03;;
8252;SDS011;61313;48.396;10.008;2023-02-01T04:36:40;7.97;;;5.93;;
8252;SDS011;61313;48.396;10.008;2023-02-01T04:39:05;7.07;;;6.13;;
8252;SDS011;61313;48.396;10.008;2023-02-01T04:41:31;13.23;;;6.30;;
8252;SDS011;61313;48.396;10.008;2023-02-01T04:43:56;8.27;;;6.17;;
8252;SDS011;61313;48.396;10.008;2023-02-01T04:46:22;10.60;;;6.57;;
8252;SDS011;61313;48.396;10.008;2023-02-01T04:48:47;7.80;;;5.87;;
8252;SDS011;61313;48.396;10.008;2023-02-01T04:51:13;9.10;;;5.60;;
8252;SDS011;61313;48.396;10.008;2023-02-01T04:53:40;7.00;;;5.47;;
8252;SDS011;61313;48.396;10.008;2023-02-01T04:56:05;6.17;;;4.80;;
8252;SDS011;61313;48.396;10.008;2023-02-01T04:58:31;4.83;;;4.33;;
8252;SDS011;61313;48.396;10.008;2023-02-01T05:00:56;6.93;;;4.97;;
8252;SDS011;61313;48.396;10.008;2023-02-01T05:03:22;7.20;;;4.87;;
8252;SDS011;61313;48.396;10.008;2023-02-01T05:05:48;7.40;;;4.80;;
8252;SDS011;61313;48.396;10.008;2023-02-01T05:08:14;6.83;;;5.30;;
8252;SDS011;61313;48.396;10.008;2023-02-01T05:10:39;7.20;;;5.13;;
8252;SDS011;61313;48.396;10.008;2023-02-01T05:13:05;6.80;;;5.40;;
8252;SDS011;61313;48.396;10.008;2023-02-01T05:15:49;7.33;;;5.23;;
8252;SDS011;61313;48.396;10.008;2023-02-01T05:18:16;5.90;;;4.77;;
8252;SDS011;61313;48.396;10.008;2023-02-01T05:20:41;8.17;;;4.90;;
8252;SDS011;61313;48.396;10.008;2023-02-01T05:23:07;6.40;;;5.57;;
8252;SDS011;61313;48.396;10.008;2023-02-01T05:25:32;6.60;;;4.97;;
8252;SDS011;61313;48.396;10.008;2023-02-01T05:27:58;8.00;;;5.60;;
8252;SDS011;61313;48.396;10.008;2023-02-01T05:30:23;5.20;;;4.67;;
8252;SDS011;61313;48.396;10.008;2023-02-01T05:32:49;7.70;;;5.67;;
8252;SDS011;61313;48.396;10.008;2023-02-01T05:35:16;8.50;;;5.93;;
8252;SDS011;61313;48.396;10.008;2023-02-01T05:37:41;7.23;;;5.40;;
8252;SDS011;61313;48.396;10.008;2023-02-01T05:40:07;10.27;;;7.20;;
8252;SDS011;61313;48.396;10.008;2023-02-01T05:42:33;7.00;;;6.03;;
8252;SDS011;61313;48.396;10.008;2023-02-01T05:44:58;12.10;;;6.60;;
8252;SDS011;61313;48.396;10.008;2023-02-01T05:47:24;7.73;;;6.50;;
8252;SDS011;61313;48.396;10.008;2023-02-01T05:49:49;8.90;;;5.67;;
8252;SDS011;61313;48.396;10.008;2023-02-01T05:52:15;7.03;;;5.40;;
8252;SDS011;61313;48.396;10.008;2023-02-01T05:54:44;9.90;;;5.87;;
8252;SDS011;61313;48.396;10.008;2023-02-01T05:57:12;6.60;;;5.47;;
8252;SDS011;61313;48.396;10.008;2023-02-01T05:59:38;6.47;;;5.77;;
8252;SDS011;61313;48.396;10.008;2023-02-01T06:02:06;7.00;;;6.00;;
8252;SDS011;61313;48.396;10.008;2023-02-01T06:04:33;6.80;;;6.10;;
8252;SDS011;61313;48.396;10.008;2023-02-01T06:06:59;8.03;;;6.13;;
8252;SDS011;61313;48.396;10.008;2023-02-01T06:09:24;9.97;;;6.57;;
8252;SDS011;61313;48.396;10.008;2023-02-01T06:11:50;7.73;;;6.23;;
8252;SDS011;61313;48.396;10.008;2023-02-01T06:14:15;11.10;;;6.60;;
8252;SDS011;61313;48.396;10.008;2023-02-01T06:16:40;6.93;;;5.83;;
8252;SDS011;61313;48.396;10.008;2023-02-01T06:19:06;7.10;;;6.07;;
8252;SDS011;61313;48.396;10.008;2023-02-01T06:21:31;6.07;;;5.27;;
8252;SDS011;61313;48.396;10.008;2023-02-01T06:23:58;6.03;;;4.80;;
8252;SDS011;61313;48.396;10.008;2023-02-01T06:26:24;6.53;;;5.73;;
8252;SDS011;61313;48.396;10.008;2023-02-01T06:28:50;9.13;;;5.17;;
8252;SDS011;61313;48.396;10.008;2023-02-01T06:31:15;6.00;;;5.10;;
8252;SDS011;61313;48.396;10.008;2023-02-01T06:33:41;11.80;;;5.60;;
8252;SDS011;61313;48.396;10.008;2023-02-01T06:36:06;12.00;;;4.90;;
8252;SDS011;61313;48.396;10.008;2023-02-01T06:38:33;8.93;;;5.47;;
8252;SDS011;61313;48.396;10.008;2023-02-01T06:41:02;8.30;;;5.57;;
8252;SDS011;61313;48.396;10.008;2023-02-01T06:43:28;6.90;;;5.47;;
8252;SDS011;61313;48.396;10.008;2023-02-01T06:45:58;7.37;;;5.70;;
8252;SDS011;61313;48.396;10.008;2023-02-01T06:48:26;9.63;;;6.00;;
8252;SDS011;61313;48.396;10.008;2023-02-01T06:50:51;5.90;;;4.00;;
8252;SDS011;61313;48.396;10.008;2023-02-01T06:53:17;6.60;;;5.00;;
8252;SDS011;61313;48.396;10.008;2023-02-01T06:55:50;6.10;;;4.30;;
8252;SDS011;61313;48.396;10.008;2023-02-01T06:58:32;6.57;;;4.70;;
8252;SDS011;61313;48.396;10.008;2023-02-01T07:00:58;10.77;;;4.97;;
8252;SDS011;61313;48.396;10.008;2023-02-01T07:03:29;13.10;;;4.73;;
8252;SDS011;61313;48.396;10.008;2023-02-01T07:05:55;25.97;;;7.80;;
8252;SDS011;61313;48.396;10.008;2023-02-01T07:08:23;7.57;;;3.93;;
8252;SDS011;61313;48.396;10.008;2023-02-01T07:10:49;5.00;;;3.87;;
8252;SDS011;61313;48.396;10.008;2023-02-01T07:13:15;4.30;;;3.90;;
8252;SDS011;61313;48.396;10.008;2023-02-01T07:15:40;4.90;;;4.10;;
8252;SDS011;61313;48.396;10.008;2023-02-01T07:18:06;4.60;;;3.80;;
8252;SDS011;61313;48.396;10.008;2023-02-01T07:20:31;6.00;;;5.00;;
8252;SDS011;61313;48.396;10.008;2023-02-01T07:22:57;4.70;;;3.23;;
8252;SDS011;61313;48.396;10.008;2023-02-01T07:25:23;5.20;;;4.70;;
8252;SDS011;61313;48.396;10.008;2023-02-01T07:27:48;5.17;;;3.23;;
8252;SDS011;61313;48.396;10.008;2023-02-01T07:30:14;5.80;;;3.73;;
8252;SDS011;61313;48.396;10.008;2023-02-01T07:32:39;5.97;;;4.07;;
8252;SDS011;61313;48.396;10.008;2023-02-01T07:35:05;4.90;;;3.53;;
8252;SDS011;61313;48.396;10.008;2023-02-01T07:37:30;6.90;;;4.50;;
8252;SDS011;61313;48.396;10.008;2023-02-01T07:39:56;5.83;;;4.00;;
8252;SDS011;61313;48.396;10.008;2023-02-01T07:42:21;8.40;;;5.80;;
8252;SDS011;61313;48.396;10.008;2023-02-01T07:44:47;4.60;;;3.77;;
8252;SDS011;61313;48.396;10.008;2023-02-01T07:47:12;4.50;;;3.70;;
8252;SDS011;61313;48.396;10.008;2023-02-01T07:49:37;6.43;;;4.03;;
8252;SDS011;61313;48.396;10.008;2023-02-01T07:52:03;6.07;;;4.03;;
8252;SDS011;61313;48.396;10.008;2023-02-01T07:54:28;6.23;;;4.50;;
8252;SDS011;61313;48.396;10.008;2023-02-01T07:56:54;6.60;;;3.70;;
8252;SDS011;61313;48.396;10.008;2023-02-01T07:59:19;7.60;;;3.87;;
8252;SDS011;61313;48.396;10.008;2023-02-01T08:01:45;4.60;;;4.20;;
8252;SDS011;61313;48.396;10.008;2023-02-01T08:04:10;9.77;;;5.07;;
8252;SDS011;61313;48.396;10.008;2023-02-01T08:06:37;11.03;;;5.27;;
8252;SDS011;61313;48.396;10.008;2023-02-01T08:09:04;8.50;;;5.07;;
8252;SDS011;61313;48.396;10.008;2023-02-01T08:11:29;11.87;;;5.70;;
8252;SDS011;61313;48.396;10.008;2023-02-01T08:13:56;7.13;;;5.20;;
8252;SDS011;61313;48.396;10.008;2023-02-01T08:16:22;9.97;;;5.50;;
8252;SDS011;61313;48.396;10.008;2023-02-01T08:18:49;7.97;;;4.40;;
8252;SDS011;61313;48.396;10.008;2023-02-01T08:21:19;7.47;;;5.70;;
8252;SDS011;61313;48.396;10.008;2023-02-01T08:23:47;5.17;;;4.67;;
8252;SDS011;61313;48.396;10.008;2023-02-01T08:26:14;7.43;;;5.97;;
8252;SDS011;61313;48.396;10.008;2023-02-01T08:28:45;9.30;;;5.27;;
8252;SDS011;61313;48.396;10.008;2023-02-01T08:31:14;7.27;;;4.90;;
8252;SDS011;61313;48.396;10.008;2023-02-01T08:33:41;5.43;;;4.53;;
8252;SDS011;61313;48.396;10.008;2023-02-01T08:36:08;8.40;;;5.43;;
8252;SDS011;61313;48.396;10.008;2023-02-01T08:38:35;8.37;;;5.53;;
8252;SDS011;61313;48.396;10.008;2023-02-01T08:41:05;6.30;;;4.80;;
8252;SDS011;61313;48.396;10.008;2023-02-01T08:43:32;7.33;;;6.00;;
8252;SDS011;61313;48.396;10.008;2023-02-01T08:45:58;8.33;;;5.40;;
8252;SDS011;61313;48.396;10.008;2023-02-01T08:48:24;7.53;;;5.30;;
8252;SDS011;61313;48.396;10.008;2023-02-01T08:50:49;9.77;;;5.70;;
8252;SDS011;61313;48.396;10.008;2023-02-01T08:53:14;10.10;;;5.83;;
8252;SDS011;61313;48.396;10.008;2023-02-01T08:55:40;35.40;;;7.60;;
8252;SDS011;61313;48.396;10.008;2023-02-01T08:58:06;7.77;;;6.00;;
8252;SDS011;61313;48.396;10.008;2023-02-01T09:00:31;11.93;;;6.43;;
8252;SDS011;61313;48.396;10.008;2023-02-01T09:02:57;6.83;;;5.03;;
8252;SDS011;61313;48.396;10.008;2023-02-01T09:05:23;6.10;;;5.50;;
8252;SDS011;61313;48.396;10.008;2023-02-01T09:07:51;6.97;;;5.60;;
8252;SDS011;61313;48.396;10.008;2023-02-01T09:10:17;7.63;;;5.70;;
8252;SDS011;61313;48.396;10.008;2023-02-01T09:12:43;8.83;;;5.90;;
8252;SDS011;61313;48.396;10.008;2023-02-01T09:15:08;7.00;;;5.07;;
8252;SDS011;61313;48.396;10.008;2023-02-01T09:17:34;8.17;;;5.60;;
8252;SDS011;61313;48.396;10.008;2023-02-01T09:20:00;8.33;;;5.40;;
8252;SDS011;61313;48.396;10.008;2023-02-01T09:22:25;12.63;;;7.20;;
8252;SDS011;61313;48.396;10.008;2023-02-01T09:24:51;9.07;;;5.70;;
8252;SDS011;61313;48.396;10.008;2023-02-01T09:27:17;7.43;;;6.30;;
8252;SDS011;61313;48.396;10.008;2023-02-01T09:29:43;7.37;;;5.90;;
8252;SDS011;61313;48.396;10.008;2023-02-01T09:32:09;7.80;;;6.23;;
8252;SDS011;61313;48.396;10.008;2023-02-01T09:34:35;6.60;;;5.80;;
8252;SDS011;61313;48.396;10.008;2023-02-01T09:37:00;13.53;;;6.13;;
8252;SDS011;61313;48.396;10.008;2023-02-01T09:39:26;6.80;;;5.90;;
8252;SDS011;61313;48.396;10.008;2023-02-01T09:42:18;7.07;;;6.07;;
8252;SDS011;61313;48.396;10.008;2023-02-01T09:47:30;11.83;;;6.03;;
8252;SDS011;61313;48.396;10.008;2023-02-01T09:50:08;9.50;;;7.37;;
8252;SDS011;61313;48.396;10.008;2023-02-01T09:52:43;11.67;;;7.57;;
8252;SDS011;61313;48.396;10.008;2023-02-01T09:55:15;10.40;;;6.73;;
8252;SDS011;61313;48.396;10.008;2023-02-01T09:58:01;7.83;;;6.50;;
8252;SDS011;61313;48.396;10.008;2023-02-01T10:00:35;9.77;;;5.40;;
8252;SDS011;61313;48.396;10.008;2023-02-01T10:03:04;11.23;;;6.50;;
8252;SDS011;61313;48.396;10.008;2023-02-01T10:05:35;17.87;;;7.07;;
8252;SDS011;61313;48.396;10.008;2023-02-01T10:08:13;12.37;;;7.70;;
8252;SDS011;61313;48.396;10.008;2023-02-01T10:10:51;21.67;;;7.00;;
8252;SDS011;61313;48.396;10.008;2023-02-01T10:26:29;7.37;;;6.53;;
8252;SDS011;61313;48.396;10.008;2023-02-01T10:29:19;11.43;;;6.70;;
8252;SDS011;61313;48.396;10.008;2023-02-01T10:31:47;8.93;;;6.03;;
8252;SDS011;61313;48.396;10.008;2023-02-01T10:37:00;7.13;;;6.40;;
8252;SDS011;61313;48.396;10.008;2023-02-01T10:39:26;8.03;;;7.23;;
8252;SDS011;61313;48.396;10.008;2023-02-01T10:41:52;7.63;;;5.90;;
8252;SDS011;61313;48.396;10.008;2023-02-01T10:44:22;8.47;;;6.67;;
8252;SDS011;61313;48.396;10.008;2023-02-01T10:46:51;8.37;;;6.83;;
8252;SDS011;61313;48.396;10.008;2023-02-01T10:49:18;8.87;;;6.37;;
8252;SDS011;61313;48.396;10.008;2023-02-01T10:58:06;6.53;;;5.13;;
8252;SDS011;61313;48.396;10.008;2023-02-01T11:00:52;8.97;;;6.10;;
8252;SDS011;61313;48.396;10.008;2023-02-01T11:05:56;13.13;;;6.90;;
8252;SDS011;61313;48.396;10.008;2023-02-01T11:08:21;7.10;;;5.63;;
8252;SDS011;61313;48.396;10.008;2023-02-01T11:10:47;9.50;;;6.30;;
8252;SDS011;61313;48.396;10.008;2023-02-01T11:13:24;13.13;;;6.70;;
8252;SDS011;61313;48.396;10.008;2023-02-01T11:15:58;16.23;;;6.40;;
8252;SDS011;61313;48.396;10.008;2023-02-01T11:18:27;7.90;;;6.17;;
8252;SDS011;61313;48.396;10.008;2023-02-01T11:20:55;8.30;;;5.70;;
8252;SDS011;61313;48.396;10.008;2023-02-01T11:23:23;6.97;;;5.50;;
8252;SDS011;61313;48.396;10.008;2023-02-01T11:28:31;8.00;;;5.80;;
8252;SDS011;61313;48.396;10.008;2023-02-01T11:31:00;8.23;;;5.53;;
8252;SDS011;61313;48.396;10.008;2023-02-01T11:33:30;7.93;;;5.70;;
8252;SDS011;61313;48.396;10.008;2023-02-01T11:36:01;9.47;;;5.57;;
8252;SDS011;61313;48.396;10.008;2023-02-01T11:38:33;8.83;;;5.90;;
8252;SDS011;61313;48.396;10.008;2023-02-01T11:41:13;6.97;;;5.30;;
8252;SDS011;61313;48.396;10.008;2023-02-01T11:43:50;10.83;;;5.70;;
8252;SDS011;61313;48.396;10.008;2023-02-01T11:46:22;10.13;;;5.90;;
8252;SDS011;61313;48.396;10.008;2023-02-01T11:48:53;7.63;;;5.13;;
8252;SDS011;61313;48.396;10.008;2023-02-01T11:51:44;7.63;;;5.10;;
8252;SDS011;61313;48.396;10.008;2023-02-01T12:13:10;9.77;;;5.20;;
8252;SDS011;61313;48.396;10.008;2023-02-01T12:16:17;9.70;;;5.57;;
8252;SDS011;61313;48.396;10.008;2023-02-01T12:21:22;9.67;;;5.87;;
8252;SDS011;61313;48.396;10.008;2023-02-01T12:29:48;17.37;;;6.03;;
8252;SDS011;61313;48.396;10.008;2023-02-01T12:46:19;8.30;;;4.93;;
8252;SDS011;61313;48.396;10.008;2023-02-01T12:48:53;5.00;;;4.50;;
8252;SDS011;61313;48.396;10.008;2023-02-01T12:51:24;7.27;;;5.03;;
8252;SDS011;61313;48.396;10.008;2023-02-01T12:54:01;6.93;;;3.80;;
8252;SDS011;61313;48.396;10.008;2023-02-01T12:56:39;11.10;;;4.30;;
8252;SDS011;61313;48.396;10.008;2023-02-01T13:02:14;4.83;;;4.33;;
8252;SDS011;61313;48.396;10.008;2023-02-01T13:07:28;7.47;;;4.20;;
8252;SDS011;61313;48.396;10.008;2023-02-01T13:10:05;6.10;;;4.10;;
8252;SDS011;61313;48.396;10.008;2023-02-01T13:12:42;12.57;;;5.30;;
8252;SDS011;61313;48.396;10.008;2023-02-01T13:17:41;8.13;;;4.10;;
8252;SDS011;61313;48.396;10.008;2023-02-01T13:20:28;5.30;;;4.00;;
8252;SDS011;61313;48.396;10.008;2023-02-01T13:23:08;7.67;;;3.90;;
8252;SDS011;61313;48.396;10.008;2023-02-01T13:25:50;9.53;;;4.13;;
8252;SDS011;61313;48.396;10.008;2023-02-01T13:41:54;4.80;;;2.27;;
8252;SDS011;61313;48.396;10.008;2023-02-01T13:44:28;5.57;;;3.40;;
8252;SDS011;61313;48.396;10.008;2023-02-01T13:46:57;6.37;;;2.70;;
8252;SDS011;61313;48.396;10.008;2023-02-01T13:49:30;9.33;;;3.33;;
8252;SDS011;61313;48.396;10.008;2023-02-01T13:52:02;6.47;;;2.70;;
8252;SDS011;61313;48.396;10.008;2023-02-01T13:54:32;12.00;;;2.77;;
8252;SDS011;61313;48.396;10.008;2023-02-01T13:57:01;4.77;;;2.23;;
8252;SDS011;61313;48.396;10.008;2023-02-01T14:44:44;7.03;;;3.13;;
8252;SDS011;61313;48.396;10.008;2023-02-01T14:49:55;12.70;;;3.47;;
8252;SDS011;61313;48.396;10.008;2023-02-01T14:52:41;8.03;;;3.80;;
8252;SDS011;61313;48.396;10.008;2023-02-01T14:57:58;6.07;;;2.63;;
8252;SDS011;61313;48.396;10.008;2023-02-01T15:00:28;6.33;;;5.17;;
8252;SDS011;61313;48.396;10.008;2023-02-01T15:02:56;5.80;;;2.60;;
8252;SDS011;61313;48.396;10.008;2023-02-01T15:05:42;10.03;;;3.10;;
8252;SDS011;61313;48.396;10.008;2023-02-01T15:08:12;7.20;;;2.53;;
8252;SDS011;61313;48.396;10.008;2023-02-01T15:10:43;6.87;;;4.70;;
8252;SDS011;61313;48.396;10.008;2023-02-01T15:13:20;5.77;;;3.03;;
8252;SDS011;61313;48.396;10.008;2023-02-01T15:15:58;5.73;;;2.97;;
8252;SDS011;61313;48.396;10.008;2023-02-01T15:18:33;5.80;;;3.03;;
8252;SDS011;61313;48.396;10.008;2023-02-01T15:21:00;5.30;;;2.70;;
8252;SDS011;61313;48.396;10.008;2023-02-01T15:23:27;7.47;;;3.00;;
8252;SDS011;61313;48.396;10.008;2023-02-01T15:25:53;9.80;;;2.63;;
8252;SDS011;61313;48.396;10.008;2023-02-01T15:28:18;5.63;;;2.83;;
8252;SDS011;61313;48.396;10.008;2023-02-01T15:30:58;9.70;;;3.37;;
8252;SDS011;61313;48.396;10.008;2023-02-01T15:33:28;5.83;;;3.10;;
8252;SDS011;61313;48.396;10.008;2023-02-01T15:36:17;7.83;;;2.70;;
8252;SDS011;61313;48.396;10.008;2023-02-01T15:38:43;4.10;;;2.60;;
8252;SDS011;61313;48.396;10.008;2023-02-01T15:41:19;10.17;;;3.30;;
8252;SDS011;61313;48.396;10.008;2023-02-01T15:46:21;12.33;;;5.27;;
8252;SDS011;61313;48.396;10.008;2023-02-01T15:48:50;7.60;;;2.93;;
8252;SDS011;61313;48.396;10.008;2023-02-01T15:51:22;30.00;;;4.53;;
8252;SDS011;61313;48.396;10.008;2023-02-01T15:54:07;5.43;;;2.77;;
8252;SDS011;61313;48.396;10.008;2023-02-01T15:56:44;10.27;;;3.87;;
8252;SDS011;61313;48.396;10.008;2023-02-01T15:59:20;12.83;;;6.80;;
8252;SDS011;61313;48.396;10.008;2023-02-01T16:01:49;9.53;;;3.93;;
8252;SDS011;61313;48.396;10.008;2023-02-01T16:04:22;8.43;;;3.27;;
8252;SDS011;61313;48.396;10.008;2023-02-01T16:06:51;10.33;;;3.03;;
8252;SDS011;61313;48.396;10.008;2023-02-01T16:09:22;10.87;;;3.97;;
8252;SDS011;61313;48.396;10.008;2023-02-01T16:14:24;6.43;;;3.40;;
8252;SDS011;61313;48.396;10.008;2023-02-01T16:16:50;10.27;;;4.00;;
8252;SDS011;61313;48.396;10.008;2023-02-01T16:19:17;13.43;;;5.10;;
8252;SDS011;61313;48.396;10.008;2023-02-01T16:21:44;8.27;;;3.40;;
8252;SDS011;61313;48.396;10.008;2023-02-01T16:24:10;18.80;;;5.13;;
8252;SDS011;61313;48.396;10.008;2023-02-01T16:26:36;14.93;;;3.80;;
8252;SDS011;61313;48.396;10.008;2023-02-01T16:29:03;9.70;;;3.67;;
8252;SDS011;61313;48.396;10.008;2023-02-01T16:31:31;13.43;;;5.50;;
8252;SDS011;61313;48.396;10.008;2023-02-01T16:34:00;42.30;;;5.70;;
8252;SDS011;61313;48.396;10.008;2023-02-01T16:36:25;8.60;;;3.67;;
8252;SDS011;61313;48.396;10.008;2023-02-01T16:38:53;10.70;;;2.70;;
8252;SDS011;61313;48.396;10.008;2023-02-01T16:41:19;10.10;;;3.77;;
8252;SDS011;61313;48.396;10.008;2023-02-01T16:43:51;12.23;;;3.50;;
8252;SDS011;61313;48.396;10.008;2023-02-01T16:46:19;24.73;;;4.27;;
8252;SDS011;61313;48.396;10.008;2023-02-01T16:48:56;13.17;;;4.00;;
8252;SDS011;61313;48.396;10.008;2023-02-01T16:51:26;9.33;;;3.27;;
8252;SDS011;61313;48.396;10.008;2023-02-01T16:53:54;6.83;;;3.50;;
8252;SDS011;61313;48.396;10.008;2023-02-01T16:56:38;5.60;;;3.53;;
8252;SDS011;61313;48.396;10.008;2023-02-01T16:59:07;7.27;;;2.80;;
8252;SDS011;61313;48.396;10.008;2023-02-01T17:01:33;6.83;;;3.03;;
8252;SDS011;61313;48.396;10.008;2023-02-01T17:03:59;6.47;;;3.63;;
8252;SDS011;61313;48.396;10.008;2023-02-01T17:06:25;8.50;;;3.40;;
8252;SDS011;61313;48.396;10.008;2023-02-01T17:08:55;5.97;;;4.03;;
8252;SDS011;61313;48.396;10.008;2023-02-01T17:11:24;7.10;;;4.00;;
8252;SDS011;61313;48.396;10.008;2023-02-01T17:13:52;10.93;;;4.10;;
8252;SDS011;61313;48.396;10.008;2023-02-01T17:18:43;9.40;;;3.47;;
8252;SDS011;61313;48.396;10.008;2023-02-01T17:21:17;9.67;;;3.53;;
8252;SDS011;61313;48.396;10.008;2023-02-01T17:23:43;7.80;;;3.60;;
8252;SDS011;61313;48.396;10.008;2023-02-01T17:26:10;8.10;;;3.60;;
8252;SDS011;61313;48.396;10.008;2023-02-01T17:28:35;9.90;;;4.00;;
8252;SDS011;61313;48.396;10.008;2023-02-01T17:31:01;6.20;;;4.20;;
8252;SDS011;61313;48.396;10.008;2023-02-01T17:33:29;11.80;;;4.47;;
8252;SDS011;61313;48.396;10.008;2023-02-01T17:35:58;9.87;;;3.43;;
8252;SDS011;61313;48.396;10.008;2023-02-01T17:38:23;8.87;;;3.50;;
8252;SDS011;61313;48.396;10.008;2023-02-01T17:40:49;9.40;;;4.27;;
8252;SDS011;61313;48.396;10.008;2023-02-01T17:43:16;5.97;;;3.83;;
8252;SDS011;61313;48.396;10.008;2023-02-01T17:45:51;12.63;;;4.60;;
8252;SDS011;61313;48.396;10.008;2023-02-01T17:48:18;6.57;;;2.90;;
8252;SDS011;61313;48.396;10.008;2023-02-01T17:50:45;4.33;;;3.63;;
8252;SDS011;61313;48.396;10.008;2023-02-01T17:53:14;10.03;;;3.47;;
8252;SDS011;61313;48.396;10.008;2023-02-01T17:55:41;10.77;;;4.23;;
8252;SDS011;61313;48.396;10.008;2023-02-01T17:58:12;12.00;;;3.70;;
8252;SDS011;61313;48.396;10.008;2023-02-01T18:00:39;10.40;;;3.50;;
8252;SDS011;61313;48.396;10.008;2023-02-01T18:03:05;7.37;;;3.40;;
8252;SDS011;61313;48.396;10.008;2023-02-01T18:05:41;6.23;;;3.43;;
8252;SDS011;61313;48.396;10.008;2023-02-01T18:08:08;7.50;;;3.67;;
8252;SDS011;61313;48.396;10.008;2023-02-01T18:10:34;6.50;;;3.57;;
8252;SDS011;61313;48.396;10.008;2023-02-01T18:13:01;11.87;;;3.77;;